Time;durP1;ratioP1;P1;durP2;ratioP2;P2;SDS_P1;SDS_P2;PMS_P1;PMS_P2;Temp;Humidity;BMP_temperature;BMP_pressure;BME280_temperature;BME280_humidity;BME280_pressure;Samples;Min_cycle;Max_cycle;Signal;HPM_P1;HPM_P2
2022/09/25 00:00:43;;;;;;;1.55;0.90;;;14.60;51.30;;;;;;5051926;28;20037;-75
2022/09/25 00:03:11;;;;;;;3.05;1.10;;;14.60;51.30;;;;;;5049098;28;20041;-75
2022/09/25 00:05:40;;;;;;;3.00;1.10;;;14.60;51.40;;;;;;5047588;28;20029;-76
2022/09/25 00:08:07;;;;;;;2.00;1.02;;;14.60;51.50;;;;;;5047165;28;20055;-76
2022/09/25 00:10:42;;;;;;;2.80;1.65;;;14.50;51.40;;;;;;5047842;28;20473;-76
2022/09/25 00:13:09;;;;;;;2.63;1.10;;;14.50;51.40;;;;;;5047264;28;20033;-76
2022/09/25 00:15:35;;;;;;;3.90;0.82;;;14.50;51.50;;;;;;5048835;28;20480;-76
2022/09/25 00:18:02;;;;;;;1.77;0.93;;;14.50;51.50;;;;;;5046616;28;20087;-76
2022/09/25 00:20:28;;;;;;;5.32;1.40;;;14.50;51.60;;;;;;5045941;28;20063;-75
2022/09/25 00:22:55;;;;;;;2.17;1.25;;;14.50;51.60;;;;;;5048924;28;20037;-75
2022/09/25 00:25:21;;;;;;;1.90;0.93;;;14.40;51.50;;;;;;5029699;28;20198;-75
2022/09/25 00:27:49;;;;;;;2.80;1.13;;;14.40;51.50;;;;;;5047514;28;20166;-75
2022/09/25 00:30:15;;;;;;;2.65;1.30;;;14.40;51.60;;;;;;5047445;28;20055;-75
2022/09/25 00:32:41;;;;;;;2.53;0.95;;;14.40;51.70;;;;;;5052609;28;20495;-77
2022/09/25 00:35:07;;;;;;;6.53;1.00;;;14.40;51.70;;;;;;5048597;28;20044;-76
2022/09/25 00:37:34;;;;;;;3.40;1.60;;;14.30;51.60;;;;;;5047980;28;20029;-77
2022/09/25 00:40:02;;;;;;;2.83;1.45;;;14.30;51.70;;;;;;5055913;28;20025;-76
2022/09/25 00:42:28;;;;;;;6.75;1.10;;;14.30;51.70;;;;;;5040479;28;20045;-76
2022/09/25 00:45:25;;;;;;;1.73;0.98;;;14.30;51.80;;;;;;5048103;28;20380;-76
2022/09/25 00:48:08;;;;;;;3.38;1.13;;;14.20;51.70;;;;;;5026640;28;20485;-76
2022/09/25 00:50:42;;;;;;;2.78;1.08;;;14.20;51.70;;;;;;5037005;28;20036;-77
2022/09/25 00:53:30;;;;;;;4.60;1.20;;;14.20;51.70;;;;;;5048009;28;20126;-76
2022/09/25 00:56:02;;;;;;;4.35;1.23;;;14.10;51.70;;;;;;5054309;28;20472;-75
2022/09/25 00:58:31;;;;;;;6.30;1.55;;;14.10;51.70;;;;;;5049969;28;20037;-76
2022/09/25 01:00:58;;;;;;;3.15;1.40;;;14.10;51.70;;;;;;5032382;28;20041;-76
2022/09/25 01:03:26;;;;;;;1.52;0.80;;;14.00;51.60;;;;;;5053121;28;20050;-76
2022/09/25 01:05:53;;;;;;;3.75;1.05;;;14.10;51.90;;;;;;5034065;28;20524;-76
2022/09/25 01:08:25;;;;;;;3.20;1.63;;;14.00;51.80;;;;;;5051634;28;20136;-77
2022/09/25 01:10:51;;;;;;;2.85;1.60;;;13.90;51.70;;;;;;5045965;28;20034;-76
2022/09/25 01:13:19;;;;;;;2.88;1.30;;;13.90;51.80;;;;;;5046222;28;20059;-75
2022/09/25 01:16:07;;;;;;;5.18;2.08;;;13.90;51.90;;;;;;5051179;28;20427;-76
2022/09/25 01:18:53;;;;;;;4.00;1.50;;;13.80;51.90;;;;;;5039034;28;20021;-77
2022/09/25 01:21:45;;;;;;;2.17;1.10;;;13.80;52.00;;;;;;5045596;28;20029;-76
2022/09/25 01:24:25;;;;;;;1.80;0.98;;;13.70;51.90;;;;;;5044719;28;20037;-76
2022/09/25 01:27:12;;;;;;;4.05;1.17;;;13.60;51.80;;;;;;5049927;28;20059;-77
2022/09/25 01:29:56;;;;;;;1.88;0.90;;;13.60;51.80;;;;;;5051009;28;20495;-77
2022/09/25 01:32:34;;;;;;;2.53;1.13;;;13.50;51.80;;;;;;5047410;28;20029;-76
2022/09/25 01:35:33;;;;;;;1.98;1.20;;;13.50;51.90;;;;;;5048036;28;20052;-76
2022/09/25 01:38:35;;;;;;;3.42;1.95;;;13.50;52.00;;;;;;5047696;28;20040;-76
2022/09/25 01:41:22;;;;;;;3.75;1.45;;;13.50;52.00;;;;;;5040440;28;20040;-75
2022/09/25 01:44:16;;;;;;;4.30;1.70;;;13.40;51.90;;;;;;5047451;28;20040;-76
2022/09/25 01:46:47;;;;;;;2.72;1.35;;;13.40;52.00;;;;;;5042148;28;20222;-76
2022/09/25 01:49:31;;;;;;;4.43;1.98;;;13.40;52.00;;;;;;5051988;28;20477;-76
2022/09/25 01:52:01;;;;;;;4.63;2.03;;;13.40;52.10;;;;;;5048659;28;20053;-77
2022/09/25 01:54:35;;;;;;;3.60;2.00;;;13.30;52.00;;;;;;5049858;28;20036;-76
2022/09/25 01:57:22;;;;;;;3.45;2.03;;;13.30;52.00;;;;;;5041365;28;20246;-76
2022/09/25 01:59:52;;;;;;;3.03;2.08;;;13.30;52.10;;;;;;5048607;28;20040;-76
2022/09/25 02:02:23;;;;;;;3.22;2.15;;;13.30;52.20;;;;;;5053485;28;20037;-76
2022/09/25 02:05:14;;;;;;;4.93;2.00;;;13.30;52.20;;;;;;5051913;28;20035;-76
2022/09/25 02:07:54;;;;;;;5.03;2.28;;;13.20;52.20;;;;;;5051141;28;20132;-76
2022/09/25 02:10:43;;;;;;;5.28;1.90;;;13.20;52.20;;;;;;5052818;28;20473;-76
2022/09/25 02:13:16;;;;;;;4.30;2.33;;;13.20;52.30;;;;;;5034527;28;20069;-76
2022/09/25 02:15:51;;;;;;;4.85;2.08;;;13.10;52.20;;;;;;5049349;28;20061;-76
2022/09/25 02:21:07;;;;;;;5.55;2.20;;;13.00;52.10;;;;;;5049724;28;20021;-76
2022/09/25 02:23:48;;;;;;;3.42;1.98;;;13.00;52.20;;;;;;5053692;28;20037;-75
2022/09/25 02:26:37;;;;;;;3.38;2.25;;;12.90;52.20;;;;;;5058908;28;20033;-76
2022/09/25 02:29:04;;;;;;;4.25;2.40;;;12.90;52.30;;;;;;5049131;28;20029;-76
2022/09/25 02:31:43;;;;;;;4.43;1.83;;;12.80;52.20;;;;;;5051619;28;20395;-76
2022/09/25 02:34:11;;;;;;;4.03;2.00;;;12.70;52.10;;;;;;5056847;28;20021;-76
2022/09/25 02:36:37;;;;;;;4.35;2.25;;;12.70;52.20;;;;;;5055420;28;20029;-76
2022/09/25 02:39:05;;;;;;;4.97;1.92;;;12.70;52.30;;;;;;5055595;28;20021;-75
2022/09/25 02:41:42;;;;;;;4.95;1.95;;;12.60;52.30;;;;;;5052590;28;20039;-76
2022/09/25 02:44:47;;;;;;;2.20;2.00;;;12.60;52.50;;;;;;5051116;28;20037;-75
2022/09/25 02:47:33;;;;;;;5.32;2.22;;;12.50;52.30;;;;;;5031631;28;20080;-75
2022/09/25 02:50:26;;;;;;;3.00;2.08;;;12.50;53.00;;;;;;5049866;28;20475;-75
2022/09/25 02:53:04;;;;;;;3.77;2.17;;;12.40;52.30;;;;;;5044441;28;20427;-76
2022/09/25 02:55:43;;;;;;;2.28;2.08;;;12.40;52.20;;;;;;5042345;28;20281;-77
2022/09/25 02:58:09;;;;;;;3.85;1.92;;;12.40;52.40;;;;;;5050222;28;20025;-76
2022/09/25 03:00:37;;;;;;;3.17;1.85;;;12.30;52.20;;;;;;5051193;28;20045;-76
2022/09/25 03:03:07;;;;;;;2.58;1.80;;;12.20;52.10;;;;;;5052658;28;20044;-75
2022/09/25 03:05:34;;;;;;;3.42;1.88;;;12.20;52.20;;;;;;5042851;28;20091;-76
2022/09/25 03:10:45;;;;;;;4.00;2.60;;;12.10;52.10;;;;;;5049056;28;20033;-75
2022/09/25 03:13:21;;;;;;;4.80;2.10;;;12.10;52.20;;;;;;5050668;28;20032;-76
2022/09/25 03:15:54;;;;;;;4.30;2.00;;;12.10;52.40;;;;;;5052482;28;20035;-76
2022/09/25 03:18:21;;;;;;;3.20;1.67;;;12.00;52.20;;;;;;5044306;28;20041;-76
2022/09/25 03:20:47;;;;;;;5.05;2.45;;;11.90;52.10;;;;;;5050759;28;20078;-75
2022/09/25 03:23:13;;;;;;;3.50;1.58;;;11.90;52.20;;;;;;5051977;28;20040;-75
2022/09/25 03:25:39;;;;;;;6.10;2.10;;;11.80;52.10;;;;;;5051900;28;20029;-76
2022/09/25 03:28:11;;;;;;;3.40;2.03;;;11.80;52.20;;;;;;5050700;28;20033;-76
2022/09/25 03:30:39;;;;;;;2.42;1.60;;;11.70;52.10;;;;;;5030588;28;20049;-76
2022/09/25 03:33:09;;;;;;;2.08;1.50;;;11.70;52.20;;;;;;5053174;28;20029;-76
2022/09/25 03:35:36;;;;;;;2.83;1.42;;;11.60;52.10;;;;;;5048437;28;20029;-76
2022/09/25 03:38:02;;;;;;;5.28;2.00;;;11.60;52.10;;;;;;5032365;28;20078;-76
2022/09/25 03:40:28;;;;;;;6.32;2.53;;;11.60;52.20;;;;;;5040867;28;20043;-75
2022/09/25 03:42:54;;;;;;;3.08;1.77;;;11.50;52.10;;;;;;5052182;28;20400;-76
2022/09/25 03:45:20;;;;;;;4.13;1.30;;;11.50;52.20;;;;;;5050082;28;20043;-76
2022/09/25 03:47:46;;;;;;;3.50;2.17;;;11.50;52.80;;;;;;5050654;28;20144;-76
2022/09/25 03:50:13;;;;;;;1.98;1.60;;;11.40;52.20;;;;;;5042097;28;20036;-76
2022/09/25 03:52:40;;;;;;;3.88;1.80;;;11.40;52.30;;;;;;5050078;28;20535;-76
2022/09/25 03:55:07;;;;;;;4.22;2.13;;;11.40;52.30;;;;;;5051780;28;20047;-76
2022/09/25 03:57:33;;;;;;;4.80;1.60;;;11.30;52.20;;;;;;5049144;28;20025;-75
2022/09/25 04:00:02;;;;;;;2.90;1.50;;;11.30;52.30;;;;;;5049837;28;20037;-76
2022/09/25 04:02:39;;;;;;;3.20;1.73;;;11.20;52.20;;;;;;5056975;28;20043;-76
2022/09/25 04:05:06;;;;;;;2.30;1.27;;;11.20;52.20;;;;;;5049313;28;20033;-76
2022/09/25 04:07:32;;;;;;;2.17;1.60;;;11.20;52.30;;;;;;5050606;28;20036;-76
2022/09/25 04:09:58;;;;;;;2.10;1.63;;;11.10;52.10;;;;;;5032607;28;20055;-75
2022/09/25 04:12:23;;;;;;;3.08;1.75;;;11.10;52.70;;;;;;5046615;28;20250;-75
2022/09/25 04:14:49;;;;;;;3.95;2.45;;;11.00;52.10;;;;;;5047864;28;20029;-77
2022/09/25 04:17:15;;;;;;;4.85;2.03;;;11.00;52.20;;;;;;5045840;28;20439;-76
2022/09/25 04:19:43;;;;;;;3.45;1.75;;;10.90;52.00;;;;;;5047472;28;20541;-76
2022/09/25 04:22:09;;;;;;;4.70;1.83;;;10.90;52.10;;;;;;5053015;28;20515;-76
2022/09/25 04:24:47;;;;;;;5.03;2.25;;;10.90;52.20;;;;;;5050490;28;20116;-75
2022/09/25 04:27:13;;;;;;;2.83;2.15;;;10.80;52.10;;;;;;5049881;28;20017;-76
2022/09/25 04:29:40;;;;;;;3.33;2.03;;;10.70;52.00;;;;;;5051211;28;20090;-76
2022/09/25 04:34:52;;;;;;;3.08;1.92;;;10.70;52.20;;;;;;5040571;28;20028;-75
2022/09/25 04:37:20;;;;;;;3.38;1.65;;;10.60;52.00;;;;;;5049446;28;20403;-76
2022/09/25 04:39:46;;;;;;;3.22;2.08;;;10.60;52.00;;;;;;5049570;28;20499;-76
2022/09/25 04:42:12;;;;;;;2.15;1.95;;;10.60;52.10;;;;;;5047083;28;20033;-76
2022/09/25 04:44:38;;;;;;;4.47;2.17;;;10.50;52.10;;;;;;5051044;28;20076;-76
2022/09/25 04:47:04;;;;;;;3.20;1.70;;;10.50;52.10;;;;;;5041491;28;20485;-76
2022/09/25 04:49:30;;;;;;;2.85;1.75;;;10.40;52.10;;;;;;5008980;28;20036;-75
2022/09/25 04:51:56;;;;;;;2.60;1.98;;;10.40;52.10;;;;;;5040667;28;20049;-76
2022/09/25 04:54:23;;;;;;;1.98;1.50;;;10.40;52.20;;;;;;5049261;28;20032;-75
2022/09/25 04:56:49;;;;;;;3.30;1.80;;;10.40;52.20;;;;;;5047349;28;20043;-74
2022/09/25 04:59:15;;;;;;;4.40;1.88;;;10.40;52.30;;;;;;5053446;28;20028;-76
2022/09/25 05:01:42;;;;;;;2.75;1.63;;;10.30;52.10;;;;;;5047585;28;20028;-75
2022/09/25 05:04:10;;;;;;;3.80;2.10;;;10.30;52.20;;;;;;5050198;28;20048;-75
2022/09/25 05:06:36;;;;;;;2.25;1.40;;;10.30;52.30;;;;;;5041614;28;20031;-75
2022/09/25 05:09:02;;;;;;;3.40;1.52;;;10.20;52.10;;;;;;5048087;28;20033;-76
2022/09/25 05:11:29;;;;;;;3.40;1.90;;;10.20;52.20;;;;;;5049687;28;20033;-75
2022/09/25 05:13:56;;;;;;;2.63;1.88;;;10.10;52.60;;;;;;5053993;28;20437;-76
2022/09/25 05:16:23;;;;;;;2.15;1.80;;;10.10;52.10;;;;;;5053834;28;20082;-75
2022/09/25 05:18:52;;;;;;;1.85;1.45;;;10.10;52.20;;;;;;5044304;28;20032;-76
2022/09/25 05:21:18;;;;;;;4.68;1.73;;;10.10;52.20;;;;;;5053380;28;20341;-75
2022/09/25 05:23:45;;;;;;;2.22;1.70;;;10.10;52.30;;;;;;5032774;28;20632;-76
2022/09/25 05:26:11;;;;;;;2.22;2.03;;;10.00;52.10;;;;;;5047574;28;20021;-76
2022/09/25 05:28:38;;;;;;;2.55;1.77;;;10.00;52.20;;;;;;5048578;28;20044;-76
2022/09/25 05:31:04;;;;;;;2.05;1.73;;;10.00;52.20;;;;;;5050652;28;20045;-75
2022/09/25 05:33:34;;;;;;;4.15;1.85;;;9.90;52.10;;;;;;5047060;28;20040;-76
2022/09/25 05:36:05;;;;;;;3.05;1.80;;;9.90;52.20;;;;;;5058578;28;20037;-77
2022/09/25 05:38:32;;;;;;;4.50;1.95;;;9.90;52.30;;;;;;5035614;28;20033;-79
2022/09/25 05:41:08;;;;;;;3.72;1.95;;;9.80;52.10;;;;;;5047771;28;20461;-77
2022/09/25 05:43:39;;;;;;;2.83;1.98;;;9.80;52.60;;;;;;5025406;28;20094;-75
2022/09/25 05:46:05;;;;;;;2.65;2.25;;;9.80;53.00;;;;;;5033177;28;20041;-78
2022/09/25 05:48:31;;;;;;;2.83;2.30;;;9.80;53.30;;;;;;5054213;28;20555;-76
2022/09/25 05:50:58;;;;;;;3.83;1.95;;;9.80;53.50;;;;;;5049394;28;20060;-78
2022/09/25 05:53:25;;;;;;;3.35;2.20;;;9.80;53.80;;;;;;5050647;28;20071;-77
2022/09/25 05:55:59;;;;;;;2.92;1.75;;;9.80;53.50;;;;;;5044953;28;20040;-76
2022/09/25 05:58:27;;;;;;;2.60;1.75;;;9.70;53.30;;;;;;5053370;28;20032;-76
2022/09/25 06:00:54;;;;;;;4.88;2.10;;;9.70;53.20;;;;;;5036407;28;20492;-77
2022/09/25 06:03:20;;;;;;;4.40;2.47;;;9.60;53.10;;;;;;5055057;28;20121;-75
2022/09/25 06:05:47;;;;;;;2.40;2.05;;;9.40;52.90;;;;;;5046221;28;20054;-74
2022/09/25 06:08:13;;;;;;;3.20;1.98;;;9.40;53.10;;;;;;5050489;28;20497;-74
2022/09/25 06:10:40;;;;;;;4.43;2.33;;;9.30;53.00;;;;;;5062376;28;20508;-75
2022/09/25 06:13:07;;;;;;;3.50;2.40;;;9.20;53.00;;;;;;5052324;28;20037;-78
2022/09/25 06:15:40;;;;;;;3.35;2.30;;;9.10;53.00;;;;;;5055082;28;20037;-75
2022/09/25 06:18:08;;;;;;;3.22;2.60;;;9.10;53.30;;;;;;5047402;28;20045;-75
2022/09/25 06:20:36;;;;;;;2.65;2.45;;;9.00;53.10;;;;;;5052635;28;20062;-75
2022/09/25 06:23:02;;;;;;;4.65;2.42;;;9.00;53.30;;;;;;5048421;28;20519;-75
2022/09/25 06:25:31;;;;;;;2.90;2.47;;;8.90;53.20;;;;;;5065183;28;20033;-76
2022/09/25 06:28:00;;;;;;;6.60;3.28;;;8.90;53.30;;;;;;5051216;28;20096;-75
2022/09/25 06:30:34;;;;;;;4.88;2.53;;;8.90;53.40;;;;;;5054632;28;20028;-75
2022/09/25 06:33:08;;;;;;;4.28;2.30;;;8.80;53.20;;;;;;5062739;28;20085;-76
2022/09/25 06:35:35;;;;;;;5.88;2.30;;;8.80;53.30;;;;;;5045691;28;20033;-77
2022/09/25 06:38:02;;;;;;;2.35;2.10;;;8.80;53.40;;;;;;5063434;28;20451;-77
2022/09/25 06:40:32;;;;;;;3.65;2.50;;;8.70;53.30;;;;;;5065832;28;20067;-78
2022/09/25 06:43:03;;;;;;;3.05;2.20;;;8.70;53.40;;;;;;5050804;28;20040;-77
2022/09/25 06:45:32;;;;;;;6.05;3.00;;;8.70;53.50;;;;;;5069387;28;20116;-76
2022/09/25 06:48:04;;;;;;;5.70;2.42;;;8.70;53.60;;;;;;5045051;28;20036;-77
2022/09/25 06:50:45;;;;;;;2.50;2.28;;;8.70;53.60;;;;;;5047178;28;20021;-78
2022/09/25 06:53:13;;;;;;;4.82;2.58;;;8.70;53.80;;;;;;5038367;28;20045;-77
2022/09/25 06:55:40;;;;;;;3.60;2.63;;;8.70;53.70;;;;;;5033207;28;20040;-76
2022/09/25 06:58:09;;;;;;;4.05;2.63;;;8.80;54.00;;;;;;5049610;28;20067;-76
2022/09/25 07:00:35;;;;;;;3.63;2.63;;;8.80;54.10;;;;;;5050069;28;20040;-80
2022/09/25 07:05:47;;;;;;;4.97;3.15;;;8.80;54.20;;;;;;5046922;28;20029;-77
2022/09/25 07:08:16;;;;;;;4.25;2.40;;;8.90;54.40;;;;;;5048105;28;20025;-78
2022/09/25 07:10:51;;;;;;;4.18;2.47;;;8.90;54.40;;;;;;5049192;28;20036;-77
2022/09/25 07:13:23;;;;;;;2.38;2.17;;;8.90;54.50;;;;;;5047545;28;20600;-76
2022/09/25 07:16:16;;;;;;;3.88;2.05;;;9.00;54.60;;;;;;5047638;28;20033;-78
2022/09/25 07:18:45;;;;;;;4.57;2.22;;;9.00;54.90;;;;;;5042631;28;20032;-78
2022/09/25 07:21:14;;;;;;;3.58;1.73;;;9.00;54.70;;;;;;5025642;28;20041;-78
2022/09/25 07:23:43;;;;;;;4.07;2.05;;;9.00;54.70;;;;;;5050049;28;20033;-78
2022/09/25 07:26:11;;;;;;;3.70;2.08;;;9.00;54.70;;;;;;5047330;28;20033;-79
2022/09/25 07:28:40;;;;;;;3.28;2.45;;;9.00;54.70;;;;;;5029490;28;20355;-78
2022/09/25 07:31:21;;;;;;;3.47;2.47;;;9.10;55.00;;;;;;5050057;28;20060;-77
2022/09/25 07:33:48;;;;;;;4.25;2.90;;;9.10;55.20;;;;;;5046227;28;20059;-77
2022/09/25 07:36:16;;;;;;;4.38;3.03;;;9.10;55.00;;;;;;5033729;28;20021;-78
2022/09/25 07:38:51;;;;;;;5.80;3.20;;;9.10;55.10;;;;;;5044520;28;20055;-77
2022/09/25 07:41:21;;;;;;;2.85;2.35;;;9.20;55.30;;;;;;5028206;28;20271;-76
2022/09/25 07:43:56;;;;;;;6.47;3.17;;;9.20;55.30;;;;;;5046004;28;20036;-76
2022/09/25 07:46:26;;;;;;;4.72;2.63;;;9.30;55.60;;;;;;5047360;28;20131;-76
2022/09/25 07:49:01;;;;;;;4.13;2.50;;;9.30;55.60;;;;;;5041305;28;20439;-75
2022/09/25 07:51:27;;;;;;;5.22;3.35;;;9.30;55.60;;;;;;5042876;28;20063;-76
2022/09/25 07:53:53;;;;;;;3.53;2.58;;;9.40;55.80;;;;;;5047758;28;20041;-77
2022/09/25 07:56:19;;;;;;;5.15;2.63;;;9.40;55.90;;;;;;5046495;28;20395;-76
2022/09/25 07:58:47;;;;;;;5.03;2.80;;;9.40;56.00;;;;;;5041949;28;20520;-75
2022/09/25 08:01:13;;;;;;;4.05;3.03;;;9.50;56.20;;;;;;5049381;28;20095;-76
2022/09/25 08:03:39;;;;;;;4.63;3.45;;;9.50;56.30;;;;;;5044905;28;20065;-78
2022/09/25 08:06:12;;;;;;;4.38;3.15;;;9.60;56.50;;;;;;5046123;28;20491;-77
2022/09/25 08:08:40;;;;;;;7.25;3.67;;;9.60;56.50;;;;;;5046668;28;20041;-78
2022/09/25 08:11:10;;;;;;;5.93;3.15;;;9.70;56.80;;;;;;5046675;28;20027;-78
2022/09/25 08:13:37;;;;;;;5.40;3.00;;;9.70;56.80;;;;;;5046515;28;20033;-77
2022/09/25 08:16:12;;;;;;;4.97;2.63;;;9.80;57.00;;;;;;5039304;28;20030;-79
2022/09/25 08:18:45;;;;;;;6.60;3.47;;;9.80;57.10;;;;;;5039463;28;20047;-78
2022/09/25 08:21:13;;;;;;;;;;;9.90;57.40;;;;;;5039940;28;20031;-77
2022/09/25 08:23:40;;;;;;;3.72;3.28;;;9.90;57.20;;;;;;5046473;28;19920;-78
2022/09/25 08:26:06;;;;;;;5.88;3.38;;;10.00;57.00;;;;;;5049267;28;20029;-76
2022/09/25 08:28:33;;;;;;;4.22;3.30;;;10.00;57.20;;;;;;5047713;28;20130;-78
2022/09/25 08:31:00;;;;;;;7.78;3.40;;;10.10;57.50;;;;;;5027685;28;20082;-77
2022/09/25 08:33:26;;;;;;;8.93;4.00;;;10.20;57.80;;;;;;5047525;28;20033;-76
2022/09/25 08:36:00;;;;;;;7.82;3.53;;;10.20;57.90;;;;;;5051363;28;20135;-75
2022/09/25 08:38:28;;;;;;;9.98;3.83;;;10.30;58.30;;;;;;5052348;28;20036;-79
2022/09/25 08:41:02;;;;;;;6.90;3.70;;;10.40;58.40;;;;;;5050255;28;20541;-77
2022/09/25 08:43:30;;;;;;;5.80;3.30;;;10.50;58.70;;;;;;5024782;28;20040;-79
2022/09/25 08:49:01;;;;;;;6.30;3.25;;;10.60;59.00;;;;;;5046110;28;20055;-77
2022/09/25 08:51:48;;;;;;;7.63;3.60;;;10.70;59.20;;;;;;5054463;28;20317;-78
2022/09/25 08:54:22;;;;;;;4.95;3.40;;;10.80;59.50;;;;;;5035695;28;20345;-78
2022/09/25 08:56:58;;;;;;;7.15;3.45;;;10.90;59.50;;;;;;5047708;28;20613;-78
2022/09/25 08:59:35;;;;;;;5.07;3.47;;;11.00;59.60;;;;;;5052792;28;20037;-77
2022/09/25 09:02:20;;;;;;;4.00;3.20;;;11.00;59.70;;;;;;5057300;28;20349;-78
2022/09/25 09:04:56;;;;;;;7.72;3.40;;;11.10;59.90;;;;;;5047304;28;20412;-78
2022/09/25 09:07:36;;;;;;;11.45;3.83;;;11.30;60.20;;;;;;5048520;28;20356;-77
2022/09/25 09:10:26;;;;;;;7.82;3.50;;;11.30;60.10;;;;;;5058409;28;20035;-78
2022/09/25 09:13:03;;;;;;;5.65;3.00;;;11.40;60.50;;;;;;5044532;28;20425;-78
2022/09/25 09:15:56;;;;;;;5.63;2.80;;;11.50;60.50;;;;;;5046422;28;20064;-79
2022/09/25 09:18:27;;;;;;;5.57;2.75;;;11.50;60.40;;;;;;5028898;28;20033;-77
2022/09/25 09:21:01;;;;;;;4.18;2.92;;;11.60;60.40;;;;;;5051062;28;20417;-76
2022/09/25 09:23:35;;;;;;;7.03;3.10;;;11.70;60.50;;;;;;5051448;28;20071;-78
2022/09/25 09:26:12;;;;;;;5.88;2.83;;;11.70;60.60;;;;;;5040826;28;20025;-78
2022/09/25 09:29:16;;;;;;;5.95;3.08;;;11.80;60.70;;;;;;5034589;28;20037;-76
2022/09/25 09:32:03;;;;;;;6.95;2.80;;;11.90;60.90;;;;;;5049883;28;20032;-76
2022/09/25 09:35:15;;;;;;;7.20;3.08;;;12.10;61.00;;;;;;5048386;28;20413;-76
2022/09/25 09:38:10;;;;;;;4.75;2.80;;;12.20;61.10;;;;;;5016030;28;20489;-79
2022/09/25 09:41:07;;;;;;;5.32;3.15;;;12.40;61.00;;;;;;5043940;28;20040;-76
2022/09/25 09:43:52;;;;;;;4.88;2.85;;;12.60;61.00;;;;;;5040675;28;20045;-77
2022/09/25 09:46:52;;;;;;;4.85;2.75;;;12.80;60.90;;;;;;5049414;28;20500;-78
2022/09/25 09:49:34;;;;;;;11.13;4.47;;;13.00;61.00;;;;;;5045092;28;20045;-77
2022/09/25 09:52:11;;;;;;;6.68;2.63;;;13.20;60.80;;;;;;5040616;28;20041;-77
2022/09/25 09:54:45;;;;;;;4.68;2.95;;;13.40;60.80;;;;;;5045811;28;20028;-77
2022/09/25 09:57:21;;;;;;;4.43;2.70;;;13.60;60.90;;;;;;5047164;28;20049;-78
2022/09/25 10:00:13;;;;;;;5.00;2.78;;;13.80;60.80;;;;;;5048891;28;20037;-76
2022/09/25 10:02:43;;;;;;;6.25;2.50;;;14.00;60.90;;;;;;5057834;28;20423;-78
2022/09/25 10:05:35;;;;;;;4.35;2.25;;;14.30;60.90;;;;;;5048381;28;20560;-77
2022/09/25 10:08:03;;;;;;;4.00;1.90;;;14.50;60.80;;;;;;5048539;28;20062;-78
2022/09/25 10:10:46;;;;;;;4.60;3.15;;;14.70;60.60;;;;;;5049100;28;20017;-77
2022/09/25 10:13:24;;;;;;;3.63;2.38;;;14.90;60.50;;;;;;5048449;28;20063;-77
2022/09/25 10:16:13;;;;;;;3.00;1.30;;;15.10;60.40;;;;;;5033316;28;20030;-77
2022/09/25 10:18:55;;;;;;;4.63;1.20;;;15.30;60.20;;;;;;5029014;28;20028;-78
2022/09/25 10:21:26;;;;;;;2.90;0.98;;;15.30;59.70;;;;;;5044910;28;20035;-77
2022/09/25 10:23:54;;;;;;;2.35;0.82;;;15.50;59.70;;;;;;5047471;28;20515;-77
2022/09/25 10:26:30;;;;;;;2.72;0.90;;;15.50;59.30;;;;;;5049660;28;20025;-77
2022/09/25 10:28:59;;;;;;;3.08;0.90;;;15.50;58.80;;;;;;5037195;28;20036;-78
2022/09/25 10:31:38;;;;;;;3.10;0.77;;;15.60;58.70;;;;;;5050995;28;20512;-77
2022/09/25 10:34:30;;;;;;;2.22;0.52;;;15.60;58.20;;;;;;5049892;28;20511;-77
2022/09/25 10:36:57;;;;;;;1.55;0.80;;;15.60;57.30;;;;;;5047896;28;20045;-78
2022/09/25 10:39:34;;;;;;;2.80;0.85;;;15.50;57.10;;;;;;5049013;28;20033;-77
2022/09/25 10:42:02;;;;;;;1.73;1.15;;;15.50;56.70;;;;;;5037644;28;20047;-77
2022/09/25 10:44:35;;;;;;;2.42;0.63;;;15.60;56.60;;;;;;5048841;28;20031;-78
2022/09/25 10:50:23;;;;;;;2.40;0.85;;;15.70;55.80;;;;;;5048656;28;20029;-75
2022/09/25 10:52:57;;;;;;;1.08;0.60;;;15.80;55.40;;;;;;5047914;28;20044;-77
2022/09/25 10:55:31;;;;;;;2.90;0.50;;;15.90;55.30;;;;;;5045822;28;20037;-78
2022/09/25 10:58:20;;;;;;;2.38;1.45;;;16.00;55.00;;;;;;5046090;28;20029;-78
2022/09/25 11:00:45;;;;;;;3.05;1.25;;;16.20;54.60;;;;;;5049977;28;20036;-79
2022/09/25 11:03:22;;;;;;;1.90;0.80;;;16.50;54.80;;;;;;5052850;28;20033;-78
2022/09/25 11:05:56;;;;;;;1.55;0.60;;;16.70;54.30;;;;;;5049657;28;20036;-78
2022/09/25 11:08:25;;;;;;;4.10;1.38;;;17.00;54.10;;;;;;5043746;28;20021;-78
2022/09/25 11:10:59;;;;;;;1.92;0.85;;;17.20;53.90;;;;;;5051748;28;20030;-79
2022/09/25 11:13:36;;;;;;;1.40;0.65;;;17.40;53.60;;;;;;5047207;28;20134;-77
2022/09/25 11:16:09;;;;;;;2.88;0.88;;;17.60;53.40;;;;;;5045927;28;20044;-77
2022/09/25 11:18:35;;;;;;;2.40;0.73;;;17.90;53.30;;;;;;5008946;28;20033;-79
2022/09/25 11:21:04;;;;;;;1.50;0.50;;;18.20;53.20;;;;;;5052126;28;20139;-78
2022/09/25 11:23:43;;;;;;;2.15;0.70;;;18.30;52.80;;;;;;5052042;28;20045;-78
2022/09/25 11:26:20;;;;;;;3.22;1.05;;;18.60;52.40;;;;;;5044175;28;20468;-79
2022/09/25 11:28:56;;;;;;;1.65;0.50;;;18.80;52.90;;;;;;5049625;28;20512;-83
2022/09/25 11:31:41;;;;;;;1.98;0.80;;;19.00;52.10;;;;;;5048727;28;20036;-79
2022/09/25 11:34:45;;;;;;;1.52;0.55;;;19.20;51.80;;;;;;5030054;28;20032;-79
2022/09/25 11:37:30;;;;;;;2.67;1.00;;;19.30;51.30;;;;;;5011493;28;20038;-78
2022/09/25 11:42:55;;;;;;;1.67;0.70;;;19.70;51.50;;;;;;5034873;28;20056;-79
2022/09/25 11:45:40;;;;;;;1.13;0.50;;;19.80;51.00;;;;;;5042670;28;20075;-78
2022/09/25 11:48:31;;;;;;;1.52;0.60;;;20.00;50.80;;;;;;5043507;28;20438;-77
2022/09/25 11:51:08;;;;;;;1.60;0.55;;;20.10;50.60;;;;;;5046349;28;20025;-77
2022/09/25 11:53:47;;;;;;;2.25;0.90;;;20.20;50.70;;;;;;5028579;28;20422;-76
2022/09/25 11:56:32;;;;;;;1.65;0.50;;;20.30;51.20;;;;;;5046302;28;20487;-76
2022/09/25 11:59:24;;;;;;;2.40;0.60;;;20.60;50.60;;;;;;5066350;28;20048;-78
2022/09/25 12:02:00;;;;;;;2.40;1.17;;;20.70;50.50;;;;;;5062090;28;20067;-79
2022/09/25 12:04:41;;;;;;;2.63;0.70;;;20.90;50.50;;;;;;5059088;28;20041;-78
2022/09/25 12:07:39;;;;;;;1.80;0.70;;;21.00;50.40;;;;;;5056233;28;20024;-78
2022/09/25 12:10:25;;;;;;;1.27;0.50;;;21.10;50.00;;;;;;5032352;28;20033;-77
2022/09/25 12:13:22;;;;;;;2.63;0.90;;;21.30;50.10;;;;;;5039292;28;20025;-77
2022/09/25 12:15:54;;;;;;;4.43;0.93;;;21.30;49.60;;;;;;5040024;28;20476;-78
2022/09/25 12:18:23;;;;;;;1.42;0.77;;;21.40;49.90;;;;;;5037492;28;20374;-77
2022/09/25 12:20:58;;;;;;;5.28;1.35;;;21.50;49.60;;;;;;5043677;28;20037;-79
2022/09/25 12:23:31;;;;;;;2.03;0.82;;;21.60;49.60;;;;;;5033738;28;20113;-77
2022/09/25 12:26:15;;;;;;;3.90;0.90;;;21.60;49.40;;;;;;5040589;28;20033;-77
2022/09/25 12:29:00;;;;;;;2.47;0.82;;;21.60;49.10;;;;;;5026421;28;20038;-77
2022/09/25 12:31:45;;;;;;;2.83;1.13;;;21.60;49.10;;;;;;5043202;28;20032;-77
2022/09/25 12:34:49;;;;;;;1.15;0.77;;;21.50;48.70;;;;;;5040483;28;20025;-78
2022/09/25 12:37:45;;;;;;;2.50;1.00;;;21.50;48.60;;;;;;5037868;28;20059;-78
2022/09/25 12:40:18;;;;;;;3.40;1.38;;;21.60;48.90;;;;;;5045855;28;20033;-78
2022/09/25 12:43:10;;;;;;;2.13;0.80;;;21.70;48.90;;;;;;5057908;28;20043;-78
2022/09/25 12:45:39;;;;;;;1.83;1.05;;;21.80;48.80;;;;;;5043535;28;20055;-78
2022/09/25 12:48:05;;;;;;;1.30;0.98;;;21.90;48.80;;;;;;5041092;28;20033;-79
2022/09/25 12:50:58;;;;;;;2.25;0.93;;;22.00;48.70;;;;;;5043083;28;20041;-78
2022/09/25 12:53:39;;;;;;;3.00;0.90;;;22.00;48.40;;;;;;5050116;28;20068;-78
2022/09/25 12:56:34;;;;;;;1.60;0.98;;;22.10;48.10;;;;;;5049825;28;20032;-80
2022/09/25 12:59:14;;;;;;;2.95;1.30;;;22.20;48.20;;;;;;5050719;28;20047;-78
2022/09/25 13:02:11;;;;;;;2.22;1.20;;;22.30;48.20;;;;;;5037495;28;20668;-78
2022/09/25 13:05:05;;;;;;;3.53;1.30;;;22.30;48.00;;;;;;5028036;28;20049;-78
2022/09/25 13:07:45;;;;;;;2.72;1.30;;;22.30;48.00;;;;;;5043827;28;20037;-78
2022/09/25 13:10:25;;;;;;;3.15;1.30;;;22.30;48.10;;;;;;5048775;28;20132;-79
2022/09/25 13:12:55;;;;;;;3.25;1.35;;;22.20;47.80;;;;;;5047007;28;20087;-78
2022/09/25 13:15:29;;;;;;;2.88;1.63;;;22.10;47.80;;;;;;5052305;28;20028;-78
2022/09/25 13:17:57;;;;;;;2.42;1.20;;;22.00;47.70;;;;;;5049412;28;20036;-80
2022/09/25 13:20:26;;;;;;;3.20;0.98;;;21.90;47.80;;;;;;5035201;28;20029;-78
2022/09/25 13:22:57;;;;;;;3.70;1.35;;;21.80;47.60;;;;;;5035188;28;20032;-77
2022/09/25 13:25:26;;;;;;;4.45;1.63;;;21.70;47.60;;;;;;5051115;28;20017;-79
2022/09/25 13:27:53;;;;;;;2.67;1.20;;;21.70;47.80;;;;;;5052519;28;20400;-80
2022/09/25 13:30:21;;;;;;;2.80;0.93;;;21.60;47.70;;;;;;5034801;28;20025;-77
2022/09/25 13:32:53;;;;;;;2.45;1.00;;;21.50;47.70;;;;;;5040960;28;20029;-77
2022/09/25 13:35:23;;;;;;;2.13;0.75;;;21.50;47.80;;;;;;5052548;28;20388;-78
2022/09/25 13:37:51;;;;;;;2.42;1.02;;;21.40;47.80;;;;;;5051959;28;20037;-78
2022/09/25 13:43:23;;;;;;;2.55;0.80;;;21.40;48.00;;;;;;5037933;28;20041;-81
2022/09/25 13:46:13;;;;;;;1.85;0.88;;;21.30;47.90;;;;;;5052565;28;20116;-76
2022/09/25 13:48:39;;;;;;;2.00;0.93;;;21.30;47.90;;;;;;5044555;28;20037;-80